CheckWX is a tool to help pilots better visualize weather data.  It is not intended as a substitute for an official pre-flight weather briefing.

13:04:57 UTC

KTOR METAR
Torrington Municipal Airport
Torrington, Wyoming, USA
Current

1 hour ago

KTOR 241153Z AUTO VRB05KT 10SM CLR 05/02 A2981 RMK AO2 SLP085 70006 T00500017 10067 20033 56010
Observed
May-24 @ 11:53 UTC
Wind
  • Variable at 5 KTS
Visibility
10 SM
Flight Rules
VFR
Cloud Levels
  • Clear skies
Temperature
C / 41°F
Dewpoint
C / 36°F
Humidity
81%
Altimeter
29.81" Hg
Pressure
1009.52 hPa
24 Hour Rain
0.06"
Previous

2 hours ago

KTOR 241053Z AUTO 16008KT 10SM CLR 04/03 A2981 RMK AO2 SLP086 T00390028
Observed
May-24 @ 10:53 UTC
Wind
  • 160° at 8 KTS
Visibility
10 SM
Flight Rules
VFR
Cloud Levels
  • Clear skies
Temperature
C / 39°F
Dewpoint
C / 37°F
Humidity
93%
Altimeter
29.81" Hg
Pressure
1009.52 hPa
Previous

3 hours ago

KTOR 240953Z AUTO 19016G25KT 10SM CLR 06/03 A2982 RMK AO2 SLP087 T00610033
Observed
May-24 @ 09:53 UTC
Wind
  • 190° at 16 KTS
  • Gusting to 25 KTS
Visibility
10 SM
Flight Rules
VFR
Cloud Levels
  • Clear skies
Temperature
C / 43°F
Dewpoint
C / 37°F
Humidity
81%
Altimeter
29.82" Hg
Pressure
1009.82 hPa